MUH weather

Mersa Matruh Airport
Mersa Matruh, Matruh Governorate, Egypt

Public forecast

Using degrees Celsius for public forecast. Weather courtesy of forecast.io.

METAR (pilot weather report)

Retrieved 2019/04/21 00:00 UTC (14 minutes ago):

HEMM 210000Z 34012KT 9999 FEW020 16/10 Q1021 NOSIG

TAF (pilot weather forecast)

Forecast is more than 12 hours old.

Retrieved 2019/04/20 00:42 UTC (24 hours ago):

TAF HEMM 202300Z 2100/2206 34012KT 9999 SCT020